sensor_id;sensor_type;location;lat;lon;timestamp;P1;durP1;ratioP1;P2;durP2;ratioP2
26530;SDS011;14201;43.188;24.160;2022-07-29T00:00:00;9.70;;;8.68;;
26530;SDS011;14201;43.188;24.160;2022-07-29T00:02:27;11.88;;;8.85;;
26530;SDS011;14201;43.188;24.160;2022-07-29T00:04:53;10.02;;;8.02;;
26530;SDS011;14201;43.188;24.160;2022-07-29T00:07:19;12.70;;;9.32;;
26530;SDS011;14201;43.188;24.160;2022-07-29T00:09:45;10.52;;;9.13;;
26530;SDS011;14201;43.188;24.160;2022-07-29T00:12:10;9.95;;;8.68;;
26530;SDS011;14201;43.188;24.160;2022-07-29T00:14:36;10.80;;;9.15;;
26530;SDS011;14201;43.188;24.160;2022-07-29T00:17:01;9.73;;;8.82;;
26530;SDS011;14201;43.188;24.160;2022-07-29T00:19:27;15.73;;;9.85;;
26530;SDS011;14201;43.188;24.160;2022-07-29T00:21:53;13.43;;;10.18;;
26530;SDS011;14201;43.188;24.160;2022-07-29T00:24:18;10.40;;;9.30;;
26530;SDS011;14201;43.188;24.160;2022-07-29T00:26:44;11.52;;;9.85;;
26530;SDS011;14201;43.188;24.160;2022-07-29T00:29:09;10.95;;;9.88;;
26530;SDS011;14201;43.188;24.160;2022-07-29T00:31:35;12.15;;;9.45;;
26530;SDS011;14201;43.188;24.160;2022-07-29T00:34:01;12.77;;;9.65;;
26530;SDS011;14201;43.188;24.160;2022-07-29T00:36:27;11.75;;;9.18;;
26530;SDS011;14201;43.188;24.160;2022-07-29T00:38:53;11.25;;;9.07;;
26530;SDS011;14201;43.188;24.160;2022-07-29T00:41:19;10.75;;;9.43;;
26530;SDS011;14201;43.188;24.160;2022-07-29T00:43:45;11.63;;;9.18;;
26530;SDS011;14201;43.188;24.160;2022-07-29T00:46:11;12.77;;;9.75;;
26530;SDS011;14201;43.188;24.160;2022-07-29T00:48:37;14.50;;;9.98;;
26530;SDS011;14201;43.188;24.160;2022-07-29T00:51:04;11.60;;;10.10;;
26530;SDS011;14201;43.188;24.160;2022-07-29T00:53:32;13.52;;;10.45;;
26530;SDS011;14201;43.188;24.160;2022-07-29T00:56:00;11.25;;;10.05;;
26530;SDS011;14201;43.188;24.160;2022-07-29T00:58:26;14.20;;;10.70;;
26530;SDS011;14201;43.188;24.160;2022-07-29T01:00:52;12.48;;;10.02;;
26530;SDS011;14201;43.188;24.160;2022-07-29T01:03:18;11.52;;;9.90;;
26530;SDS011;14201;43.188;24.160;2022-07-29T01:05:44;12.18;;;9.82;;
26530;SDS011;14201;43.188;24.160;2022-07-29T01:08:12;11.70;;;10.15;;
26530;SDS011;14201;43.188;24.160;2022-07-29T01:10:40;11.30;;;9.70;;
26530;SDS011;14201;43.188;24.160;2022-07-29T01:13:07;11.63;;;9.25;;
26530;SDS011;14201;43.188;24.160;2022-07-29T01:15:36;15.63;;;10.32;;
26530;SDS011;14201;43.188;24.160;2022-07-29T01:18:16;11.52;;;10.32;;
26530;SDS011;14201;43.188;24.160;2022-07-29T01:26:04;11.45;;;10.15;;
26530;SDS011;14201;43.188;24.160;2022-07-29T01:31:25;11.82;;;10.10;;
26530;SDS011;14201;43.188;24.160;2022-07-29T01:33:58;13.18;;;10.30;;
26530;SDS011;14201;43.188;24.160;2022-07-29T01:36:35;11.18;;;10.00;;
26530;SDS011;14201;43.188;24.160;2022-07-29T01:39:19;17.48;;;10.02;;
26530;SDS011;14201;43.188;24.160;2022-07-29T01:41:58;10.40;;;9.35;;
26530;SDS011;14201;43.188;24.160;2022-07-29T01:44:41;11.00;;;9.77;;
26530;SDS011;14201;43.188;24.160;2022-07-29T01:47:19;14.38;;;10.20;;
26530;SDS011;14201;43.188;24.160;2022-07-29T01:49:49;20.55;;;10.23;;
26530;SDS011;14201;43.188;24.160;2022-07-29T01:52:21;11.43;;;10.32;;
26530;SDS011;14201;43.188;24.160;2022-07-29T01:54:53;12.93;;;10.85;;
26530;SDS011;14201;43.188;24.160;2022-07-29T01:57:26;14.60;;;10.80;;
26530;SDS011;14201;43.188;24.160;2022-07-29T01:59:54;16.88;;;10.57;;
26530;SDS011;14201;43.188;24.160;2022-07-29T02:02:22;11.93;;;10.18;;
26530;SDS011;14201;43.188;24.160;2022-07-29T02:04:49;12.27;;;9.95;;
26530;SDS011;14201;43.188;24.160;2022-07-29T02:07:18;11.77;;;10.07;;
26530;SDS011;14201;43.188;24.160;2022-07-29T02:09:46;11.20;;;9.98;;
26530;SDS011;14201;43.188;24.160;2022-07-29T02:12:13;14.43;;;10.60;;
26530;SDS011;14201;43.188;24.160;2022-07-29T02:14:43;14.07;;;10.50;;
26530;SDS011;14201;43.188;24.160;2022-07-29T02:17:12;11.75;;;10.50;;
26530;SDS011;14201;43.188;24.160;2022-07-29T02:19:41;12.70;;;10.32;;
26530;SDS011;14201;43.188;24.160;2022-07-29T02:22:09;12.00;;;10.80;;
26530;SDS011;14201;43.188;24.160;2022-07-29T02:24:38;14.68;;;9.85;;
26530;SDS011;14201;43.188;24.160;2022-07-29T02:27:06;12.90;;;10.27;;
26530;SDS011;14201;43.188;24.160;2022-07-29T02:29:33;13.13;;;10.80;;
26530;SDS011;14201;43.188;24.160;2022-07-29T02:32:01;13.15;;;10.35;;
26530;SDS011;14201;43.188;24.160;2022-07-29T02:34:28;12.20;;;10.85;;
26530;SDS011;14201;43.188;24.160;2022-07-29T02:36:55;13.30;;;10.98;;
26530;SDS011;14201;43.188;24.160;2022-07-29T02:39:21;14.25;;;10.93;;
26530;SDS011;14201;43.188;24.160;2022-07-29T02:41:48;15.60;;;10.68;;
26530;SDS011;14201;43.188;24.160;2022-07-29T02:44:19;9.73;;;8.73;;
26530;SDS011;14201;43.188;24.160;2022-07-29T02:51:57;13.82;;;11.07;;
26530;SDS011;14201;43.188;24.160;2022-07-29T02:54:31;12.77;;;11.13;;
26530;SDS011;14201;43.188;24.160;2022-07-29T02:57:04;12.50;;;11.23;;
26530;SDS011;14201;43.188;24.160;2022-07-29T02:59:39;14.05;;;10.75;;
26530;SDS011;14201;43.188;24.160;2022-07-29T03:02:08;15.07;;;11.13;;
26530;SDS011;14201;43.188;24.160;2022-07-29T03:04:36;13.00;;;11.23;;
26530;SDS011;14201;43.188;24.160;2022-07-29T03:07:04;13.55;;;12.05;;
26530;SDS011;14201;43.188;24.160;2022-07-29T03:09:31;12.95;;;11.60;;
26530;SDS011;14201;43.188;24.160;2022-07-29T03:11:57;11.70;;;10.50;;
26530;SDS011;14201;43.188;24.160;2022-07-29T03:14:23;14.88;;;11.75;;
26530;SDS011;14201;43.188;24.160;2022-07-29T03:16:49;13.70;;;12.20;;
26530;SDS011;14201;43.188;24.160;2022-07-29T03:19:16;14.63;;;12.15;;
26530;SDS011;14201;43.188;24.160;2022-07-29T03:21:42;13.13;;;11.40;;
26530;SDS011;14201;43.188;24.160;2022-07-29T03:24:08;15.32;;;12.27;;
26530;SDS011;14201;43.188;24.160;2022-07-29T03:26:34;17.70;;;11.25;;
26530;SDS011;14201;43.188;24.160;2022-07-29T03:28:59;12.13;;;10.93;;
26530;SDS011;14201;43.188;24.160;2022-07-29T03:31:25;14.80;;;11.23;;
26530;SDS011;14201;43.188;24.160;2022-07-29T03:33:50;13.50;;;11.88;;
26530;SDS011;14201;43.188;24.160;2022-07-29T03:36:16;13.20;;;10.63;;
26530;SDS011;14201;43.188;24.160;2022-07-29T03:38:42;12.55;;;11.38;;
26530;SDS011;14201;43.188;24.160;2022-07-29T03:41:10;15.57;;;11.27;;
26530;SDS011;14201;43.188;24.160;2022-07-29T03:43:38;13.48;;;11.13;;
26530;SDS011;14201;43.188;24.160;2022-07-29T03:46:07;16.35;;;11.90;;
26530;SDS011;14201;43.188;24.160;2022-07-29T03:48:34;14.52;;;10.60;;
26530;SDS011;14201;43.188;24.160;2022-07-29T03:51:05;14.15;;;11.27;;
26530;SDS011;14201;43.188;24.160;2022-07-29T03:53:31;15.43;;;10.93;;
26530;SDS011;14201;43.188;24.160;2022-07-29T03:55:58;14.98;;;10.82;;
26530;SDS011;14201;43.188;24.160;2022-07-29T03:58:26;15.88;;;11.32;;
26530;SDS011;14201;43.188;24.160;2022-07-29T04:00:54;15.82;;;11.20;;
26530;SDS011;14201;43.188;24.160;2022-07-29T04:03:21;14.82;;;11.25;;
26530;SDS011;14201;43.188;24.160;2022-07-29T04:06:06;14.02;;;11.05;;
26530;SDS011;14201;43.188;24.160;2022-07-29T04:08:32;16.70;;;11.27;;
26530;SDS011;14201;43.188;24.160;2022-07-29T04:10:59;15.98;;;11.70;;
26530;SDS011;14201;43.188;24.160;2022-07-29T04:13:25;13.80;;;11.15;;
26530;SDS011;14201;43.188;24.160;2022-07-29T04:15:50;15.60;;;10.23;;
26530;SDS011;14201;43.188;24.160;2022-07-29T04:18:16;18.88;;;12.10;;
26530;SDS011;14201;43.188;24.160;2022-07-29T04:20:42;12.73;;;11.02;;
26530;SDS011;14201;43.188;24.160;2022-07-29T04:23:07;12.57;;;11.23;;
26530;SDS011;14201;43.188;24.160;2022-07-29T04:25:36;12.70;;;11.23;;
26530;SDS011;14201;43.188;24.160;2022-07-29T04:28:02;12.68;;;11.45;;
26530;SDS011;14201;43.188;24.160;2022-07-29T04:30:29;12.23;;;10.93;;
26530;SDS011;14201;43.188;24.160;2022-07-29T04:32:55;15.32;;;12.05;;
26530;SDS011;14201;43.188;24.160;2022-07-29T04:35:21;12.55;;;11.27;;
26530;SDS011;14201;43.188;24.160;2022-07-29T04:37:46;15.02;;;11.82;;
26530;SDS011;14201;43.188;24.160;2022-07-29T04:40:12;13.93;;;11.57;;
26530;SDS011;14201;43.188;24.160;2022-07-29T04:42:39;14.43;;;10.90;;
26530;SDS011;14201;43.188;24.160;2022-07-29T05:14:11;13.52;;;10.85;;
26530;SDS011;14201;43.188;24.160;2022-07-29T05:16:36;14.40;;;11.40;;
26530;SDS011;14201;43.188;24.160;2022-07-29T05:19:04;24.02;;;11.98;;
26530;SDS011;14201;43.188;24.160;2022-07-29T05:21:29;13.07;;;10.60;;
26530;SDS011;14201;43.188;24.160;2022-07-29T05:23:55;12.25;;;10.93;;
26530;SDS011;14201;43.188;24.160;2022-07-29T05:26:21;25.48;;;11.52;;
26530;SDS011;14201;43.188;24.160;2022-07-29T05:28:46;13.38;;;11.48;;
26530;SDS011;14201;43.188;24.160;2022-07-29T05:31:12;14.75;;;11.13;;
26530;SDS011;14201;43.188;24.160;2022-07-29T05:33:40;13.73;;;10.70;;
26530;SDS011;14201;43.188;24.160;2022-07-29T05:36:06;11.77;;;10.50;;
26530;SDS011;14201;43.188;24.160;2022-07-29T05:38:32;13.80;;;11.73;;
26530;SDS011;14201;43.188;24.160;2022-07-29T05:40:59;14.85;;;10.88;;
26530;SDS011;14201;43.188;24.160;2022-07-29T05:43:25;11.38;;;10.30;;
26530;SDS011;14201;43.188;24.160;2022-07-29T05:45:52;16.08;;;10.70;;
26530;SDS011;14201;43.188;24.160;2022-07-29T05:48:18;12.90;;;10.75;;
26530;SDS011;14201;43.188;24.160;2022-07-29T05:50:43;12.00;;;10.20;;
26530;SDS011;14201;43.188;24.160;2022-07-29T06:00:26;13.70;;;10.00;;
26530;SDS011;14201;43.188;24.160;2022-07-29T06:02:52;18.30;;;10.38;;
26530;SDS011;14201;43.188;24.160;2022-07-29T06:15:00;11.00;;;8.35;;
26530;SDS011;14201;43.188;24.160;2022-07-29T06:17:25;11.77;;;8.30;;
26530;SDS011;14201;43.188;24.160;2022-07-29T06:19:51;9.55;;;8.32;;
26530;SDS011;14201;43.188;24.160;2022-07-29T06:22:17;11.90;;;8.30;;
26530;SDS011;14201;43.188;24.160;2022-07-29T06:24:43;11.23;;;7.97;;
26530;SDS011;14201;43.188;24.160;2022-07-29T06:27:12;22.50;;;8.60;;
26530;SDS011;14201;43.188;24.160;2022-07-29T06:29:37;9.27;;;7.05;;
26530;SDS011;14201;43.188;24.160;2022-07-29T06:32:03;11.65;;;7.75;;
26530;SDS011;14201;43.188;24.160;2022-07-29T06:34:29;11.20;;;7.30;;
26530;SDS011;14201;43.188;24.160;2022-07-29T06:39:20;9.15;;;7.50;;
26530;SDS011;14201;43.188;24.160;2022-07-29T06:41:47;11.40;;;6.80;;
26530;SDS011;14201;43.188;24.160;2022-07-29T06:44:17;8.85;;;6.75;;
26530;SDS011;14201;43.188;24.160;2022-07-29T06:46:43;11.30;;;7.70;;
26530;SDS011;14201;43.188;24.160;2022-07-29T06:54:01;10.05;;;6.70;;
26530;SDS011;14201;43.188;24.160;2022-07-29T06:56:28;9.60;;;6.60;;
26530;SDS011;14201;43.188;24.160;2022-07-29T06:58:55;12.25;;;7.18;;
26530;SDS011;14201;43.188;24.160;2022-07-29T07:01:21;7.95;;;6.38;;
26530;SDS011;14201;43.188;24.160;2022-07-29T07:03:47;14.25;;;6.30;;
26530;SDS011;14201;43.188;24.160;2022-07-29T07:06:12;12.82;;;6.13;;
26530;SDS011;14201;43.188;24.160;2022-07-29T07:08:38;9.43;;;6.32;;
26530;SDS011;14201;43.188;24.160;2022-07-29T07:11:04;13.45;;;6.20;;
26530;SDS011;14201;43.188;24.160;2022-07-29T07:30:33;7.97;;;5.85;;
26530;SDS011;14201;43.188;24.160;2022-07-29T07:32:59;10.35;;;5.60;;
26530;SDS011;14201;43.188;24.160;2022-07-29T07:35:25;20.17;;;6.35;;
26530;SDS011;14201;43.188;24.160;2022-07-29T07:37:53;38.40;;;18.60;;
26530;SDS011;14201;43.188;24.160;2022-07-29T07:40:19;41.45;;;8.13;;
26530;SDS011;14201;43.188;24.160;2022-07-29T07:42:45;7.32;;;5.47;;
26530;SDS011;14201;43.188;24.160;2022-07-29T07:45:11;16.25;;;6.18;;
26530;SDS011;14201;43.188;24.160;2022-07-29T08:04:38;15.27;;;6.55;;
26530;SDS011;14201;43.188;24.160;2022-07-29T08:07:05;6.85;;;5.82;;
26530;SDS011;14201;43.188;24.160;2022-07-29T08:09:32;10.13;;;5.85;;
26530;SDS011;14201;43.188;24.160;2022-07-29T08:11:59;10.35;;;6.47;;
26530;SDS011;14201;43.188;24.160;2022-07-29T08:14:27;13.35;;;6.20;;
26530;SDS011;14201;43.188;24.160;2022-07-29T08:16:53;6.90;;;5.15;;
26530;SDS011;14201;43.188;24.160;2022-07-29T08:19:19;7.20;;;5.55;;
26530;SDS011;14201;43.188;24.160;2022-07-29T08:21:45;12.40;;;5.53;;
26530;SDS011;14201;43.188;24.160;2022-07-29T08:24:11;11.95;;;5.20;;
26530;SDS011;14201;43.188;24.160;2022-07-29T08:26:55;8.43;;;5.40;;
26530;SDS011;14201;43.188;24.160;2022-07-29T08:29:20;7.53;;;5.18;;
26530;SDS011;14201;43.188;24.160;2022-07-29T08:31:46;10.57;;;4.65;;
26530;SDS011;14201;43.188;24.160;2022-07-29T08:34:12;10.55;;;5.40;;
26530;SDS011;14201;43.188;24.160;2022-07-29T08:36:37;9.05;;;5.25;;
26530;SDS011;14201;43.188;24.160;2022-07-29T08:39:03;8.40;;;5.22;;
26530;SDS011;14201;43.188;24.160;2022-07-29T08:41:30;86.60;;;9.32;;
26530;SDS011;14201;43.188;24.160;2022-07-29T08:43:56;7.53;;;4.95;;
26530;SDS011;14201;43.188;24.160;2022-07-29T08:46:22;7.05;;;5.00;;
26530;SDS011;14201;43.188;24.160;2022-07-29T08:48:48;10.60;;;5.22;;
26530;SDS011;14201;43.188;24.160;2022-07-29T08:51:16;12.25;;;5.97;;
26530;SDS011;14201;43.188;24.160;2022-07-29T08:53:44;9.55;;;5.05;;
26530;SDS011;14201;43.188;24.160;2022-07-29T08:56:12;5.70;;;4.82;;
26530;SDS011;14201;43.188;24.160;2022-07-29T08:58:39;8.27;;;5.18;;
26530;SDS011;14201;43.188;24.160;2022-07-29T09:01:06;7.47;;;5.20;;
26530;SDS011;14201;43.188;24.160;2022-07-29T09:03:37;5.35;;;4.28;;
26530;SDS011;14201;43.188;24.160;2022-07-29T09:06:05;6.40;;;4.70;;
26530;SDS011;14201;43.188;24.160;2022-07-29T09:38:58;26.77;;;5.93;;
26530;SDS011;14201;43.188;24.160;2022-07-29T09:41:26;9.57;;;4.55;;
26530;SDS011;14201;43.188;24.160;2022-07-29T09:43:56;6.65;;;4.82;;
26530;SDS011;14201;43.188;24.160;2022-07-29T09:46:23;11.15;;;4.45;;
26530;SDS011;14201;43.188;24.160;2022-07-29T09:49:11;7.97;;;5.38;;
26530;SDS011;14201;43.188;24.160;2022-07-29T09:51:37;9.13;;;5.28;;
26530;SDS011;14201;43.188;24.160;2022-07-29T09:56:52;6.65;;;4.90;;
26530;SDS011;14201;43.188;24.160;2022-07-29T09:59:18;6.72;;;5.13;;
26530;SDS011;14201;43.188;24.160;2022-07-29T10:01:45;11.32;;;5.18;;
26530;SDS011;14201;43.188;24.160;2022-07-29T10:04:12;9.30;;;5.22;;
26530;SDS011;14201;43.188;24.160;2022-07-29T10:06:54;7.65;;;6.22;;
26530;SDS011;14201;43.188;24.160;2022-07-29T10:09:25;9.32;;;5.20;;
26530;SDS011;14201;43.188;24.160;2022-07-29T10:12:07;8.70;;;5.20;;
26530;SDS011;14201;43.188;24.160;2022-07-29T10:14:40;5.55;;;4.28;;
26530;SDS011;14201;43.188;24.160;2022-07-29T10:17:08;7.95;;;5.25;;
26530;SDS011;14201;43.188;24.160;2022-07-29T10:19:35;5.85;;;5.20;;
26530;SDS011;14201;43.188;24.160;2022-07-29T10:22:05;8.48;;;4.88;;
26530;SDS011;14201;43.188;24.160;2022-07-29T10:24:33;8.75;;;4.40;;
26530;SDS011;14201;43.188;24.160;2022-07-29T10:27:01;7.07;;;4.57;;
26530;SDS011;14201;43.188;24.160;2022-07-29T10:29:28;6.10;;;4.97;;
26530;SDS011;14201;43.188;24.160;2022-07-29T10:43:27;12.77;;;5.00;;
26530;SDS011;14201;43.188;24.160;2022-07-29T10:46:01;8.07;;;4.95;;
26530;SDS011;14201;43.188;24.160;2022-07-29T10:48:28;9.13;;;5.22;;
26530;SDS011;14201;43.188;24.160;2022-07-29T10:50:58;7.72;;;5.40;;
26530;SDS011;14201;43.188;24.160;2022-07-29T10:56:49;6.40;;;5.10;;
26530;SDS011;14201;43.188;24.160;2022-07-29T11:01:49;6.78;;;5.30;;
26530;SDS011;14201;43.188;24.160;2022-07-29T11:04:24;5.68;;;4.85;;
26530;SDS011;14201;43.188;24.160;2022-07-29T11:07:11;8.50;;;4.93;;
26530;SDS011;14201;43.188;24.160;2022-07-29T11:09:38;10.63;;;5.45;;
26530;SDS011;14201;43.188;24.160;2022-07-29T11:12:45;7.72;;;5.10;;
26530;SDS011;14201;43.188;24.160;2022-07-29T11:15:02;6.22;;;5.13;;
26530;SDS011;14201;43.188;24.160;2022-07-29T11:23:21;9.85;;;5.40;;
26530;SDS011;14201;43.188;24.160;2022-07-29T11:28:39;8.10;;;5.20;;
26530;SDS011;14201;43.188;24.160;2022-07-29T11:34:22;12.90;;;5.57;;
26530;SDS011;14201;43.188;24.160;2022-07-29T11:39:40;11.82;;;5.30;;
26530;SDS011;14201;43.188;24.160;2022-07-29T11:47:50;10.25;;;5.05;;
26530;SDS011;14201;43.188;24.160;2022-07-29T11:50:28;8.80;;;5.20;;
26530;SDS011;14201;43.188;24.160;2022-07-29T11:52:55;8.30;;;5.00;;
26530;SDS011;14201;43.188;24.160;2022-07-29T11:55:22;6.28;;;4.82;;
26530;SDS011;14201;43.188;24.160;2022-07-29T11:57:56;8.73;;;5.03;;
26530;SDS011;14201;43.188;24.160;2022-07-29T12:00:28;12.02;;;4.95;;
26530;SDS011;14201;43.188;24.160;2022-07-29T12:02:56;9.38;;;4.85;;
26530;SDS011;14201;43.188;24.160;2022-07-29T12:05:30;7.93;;;5.15;;
26530;SDS011;14201;43.188;24.160;2022-07-29T12:08:03;5.78;;;5.15;;
26530;SDS011;14201;43.188;24.160;2022-07-29T12:10:32;6.28;;;5.05;;
26530;SDS011;14201;43.188;24.160;2022-07-29T12:12:58;7.53;;;5.43;;
26530;SDS011;14201;43.188;24.160;2022-07-29T12:15:24;7.97;;;4.85;;
26530;SDS011;14201;43.188;24.160;2022-07-29T12:17:51;8.77;;;4.95;;
26530;SDS011;14201;43.188;24.160;2022-07-29T12:20:27;15.63;;;6.10;;
26530;SDS011;14201;43.188;24.160;2022-07-29T12:22:55;6.10;;;5.25;;
26530;SDS011;14201;43.188;24.160;2022-07-29T12:25:22;6.20;;;5.03;;
26530;SDS011;14201;43.188;24.160;2022-07-29T12:28:02;7.72;;;4.85;;
26530;SDS011;14201;43.188;24.160;2022-07-29T12:30:34;6.30;;;5.70;;
26530;SDS011;14201;43.188;24.160;2022-07-29T12:33:09;8.82;;;5.93;;
26530;SDS011;14201;43.188;24.160;2022-07-29T12:36:10;7.97;;;5.22;;
26530;SDS011;14201;43.188;24.160;2022-07-29T12:38:39;18.83;;;5.82;;
26530;SDS011;14201;43.188;24.160;2022-07-29T12:41:05;5.90;;;5.30;;
26530;SDS011;14201;43.188;24.160;2022-07-29T12:43:31;6.25;;;5.57;;
26530;SDS011;14201;43.188;24.160;2022-07-29T12:45:58;6.82;;;5.45;;
26530;SDS011;14201;43.188;24.160;2022-07-29T12:48:39;6.55;;;4.97;;
26530;SDS011;14201;43.188;24.160;2022-07-29T12:51:07;5.70;;;5.07;;
26530;SDS011;14201;43.188;24.160;2022-07-29T12:53:34;7.80;;;4.88;;
26530;SDS011;14201;43.188;24.160;2022-07-29T12:56:01;6.07;;;5.15;;
26530;SDS011;14201;43.188;24.160;2022-07-29T12:58:40;13.47;;;5.50;;
26530;SDS011;14201;43.188;24.160;2022-07-29T13:01:16;6.75;;;5.32;;
26530;SDS011;14201;43.188;24.160;2022-07-29T13:09:13;10.60;;;5.57;;
26530;SDS011;14201;43.188;24.160;2022-07-29T13:11:41;6.07;;;4.93;;
26530;SDS011;14201;43.188;24.160;2022-07-29T13:14:08;7.38;;;5.22;;
26530;SDS011;14201;43.188;24.160;2022-07-29T13:16:35;9.55;;;5.00;;
26530;SDS011;14201;43.188;24.160;2022-07-29T13:19:03;18.73;;;5.50;;
26530;SDS011;14201;43.188;24.160;2022-07-29T13:21:36;5.15;;;4.50;;
26530;SDS011;14201;43.188;24.160;2022-07-29T13:24:04;11.13;;;5.10;;
26530;SDS011;14201;43.188;24.160;2022-07-29T13:26:31;6.65;;;5.32;;
26530;SDS011;14201;43.188;24.160;2022-07-29T13:28:57;5.85;;;5.13;;
26530;SDS011;14201;43.188;24.160;2022-07-29T13:31:23;5.57;;;4.85;;
26530;SDS011;14201;43.188;24.160;2022-07-29T13:33:49;6.13;;;5.30;;
26530;SDS011;14201;43.188;24.160;2022-07-29T13:36:15;8.55;;;5.03;;
26530;SDS011;14201;43.188;24.160;2022-07-29T13:38:41;11.20;;;5.07;;
26530;SDS011;14201;43.188;24.160;2022-07-29T13:41:07;12.48;;;5.15;;
26530;SDS011;14201;43.188;24.160;2022-07-29T13:43:32;7.13;;;5.10;;
26530;SDS011;14201;43.188;24.160;2022-07-29T13:45:58;15.25;;;5.40;;
26530;SDS011;14201;43.188;24.160;2022-07-29T13:48:24;10.00;;;5.03;;
26530;SDS011;14201;43.188;24.160;2022-07-29T13:50:50;6.65;;;4.78;;
26530;SDS011;14201;43.188;24.160;2022-07-29T13:53:16;5.95;;;5.00;;
26530;SDS011;14201;43.188;24.160;2022-07-29T13:55:41;7.13;;;5.30;;
26530;SDS011;14201;43.188;24.160;2022-07-29T13:58:07;9.25;;;4.93;;
26530;SDS011;14201;43.188;24.160;2022-07-29T14:00:33;7.28;;;4.90;;
26530;SDS011;14201;43.188;24.160;2022-07-29T14:02:59;7.13;;;4.95;;
26530;SDS011;14201;43.188;24.160;2022-07-29T14:05:24;6.57;;;5.00;;
26530;SDS011;14201;43.188;24.160;2022-07-29T14:07:50;10.70;;;4.63;;
26530;SDS011;14201;43.188;24.160;2022-07-29T14:10:16;5.32;;;4.70;;
26530;SDS011;14201;43.188;24.160;2022-07-29T14:12:42;8.50;;;4.68;;
26530;SDS011;14201;43.188;24.160;2022-07-29T14:15:08;10.10;;;4.50;;
26530;SDS011;14201;43.188;24.160;2022-07-29T14:17:34;5.97;;;4.30;;
26530;SDS011;14201;43.188;24.160;2022-07-29T14:20:00;5.55;;;4.70;;
26530;SDS011;14201;43.188;24.160;2022-07-29T14:22:25;5.70;;;4.60;;
26530;SDS011;14201;43.188;24.160;2022-07-29T14:24:51;7.63;;;4.80;;
26530;SDS011;14201;43.188;24.160;2022-07-29T14:27:17;6.70;;;4.85;;
26530;SDS011;14201;43.188;24.160;2022-07-29T14:29:43;5.10;;;4.57;;
26530;SDS011;14201;43.188;24.160;2022-07-29T14:32:09;6.80;;;5.00;;
26530;SDS011;14201;43.188;24.160;2022-07-29T14:34:35;7.90;;;4.90;;
26530;SDS011;14201;43.188;24.160;2022-07-29T14:37:02;7.07;;;4.35;;
26530;SDS011;14201;43.188;24.160;2022-07-29T14:39:30;5.25;;;4.75;;
26530;SDS011;14201;43.188;24.160;2022-07-29T14:41:56;6.90;;;4.78;;
26530;SDS011;14201;43.188;24.160;2022-07-29T14:44:22;7.40;;;4.28;;
26530;SDS011;14201;43.188;24.160;2022-07-29T14:46:48;5.25;;;4.70;;
26530;SDS011;14201;43.188;24.160;2022-07-29T14:49:14;10.32;;;4.78;;
26530;SDS011;14201;43.188;24.160;2022-07-29T14:51:40;7.35;;;4.78;;
26530;SDS011;14201;43.188;24.160;2022-07-29T14:54:06;12.05;;;5.80;;
26530;SDS011;14201;43.188;24.160;2022-07-29T14:56:32;44.03;;;8.25;;
26530;SDS011;14201;43.188;24.160;2022-07-29T14:58:58;14.10;;;7.65;;
26530;SDS011;14201;43.188;24.160;2022-07-29T15:01:24;12.27;;;7.25;;
26530;SDS011;14201;43.188;24.160;2022-07-29T15:03:50;10.25;;;6.93;;
26530;SDS011;14201;43.188;24.160;2022-07-29T15:06:16;13.85;;;6.50;;
26530;SDS011;14201;43.188;24.160;2022-07-29T15:08:41;12.18;;;7.30;;
26530;SDS011;14201;43.188;24.160;2022-07-29T15:11:07;12.48;;;6.90;;
26530;SDS011;14201;43.188;24.160;2022-07-29T15:13:33;8.65;;;6.68;;
26530;SDS011;14201;43.188;24.160;2022-07-29T15:15:59;7.28;;;6.35;;
26530;SDS011;14201;43.188;24.160;2022-07-29T15:18:25;22.90;;;8.23;;
26530;SDS011;14201;43.188;24.160;2022-07-29T15:20:50;20.55;;;9.48;;
26530;SDS011;14201;43.188;24.160;2022-07-29T15:23:16;17.13;;;9.40;;
26530;SDS011;14201;43.188;24.160;2022-07-29T15:25:42;27.17;;;9.20;;
26530;SDS011;14201;43.188;24.160;2022-07-29T15:28:08;16.65;;;8.40;;
26530;SDS011;14201;43.188;24.160;2022-07-29T15:30:34;15.80;;;8.40;;
26530;SDS011;14201;43.188;24.160;2022-07-29T15:33:05;14.43;;;8.25;;
26530;SDS011;14201;43.188;24.160;2022-07-29T15:35:33;16.73;;;7.75;;
26530;SDS011;14201;43.188;24.160;2022-07-29T15:37:59;10.60;;;7.32;;
26530;SDS011;14201;43.188;24.160;2022-07-29T15:40:25;11.90;;;7.40;;
26530;SDS011;14201;43.188;24.160;2022-07-29T15:42:50;20.70;;;10.27;;
26530;SDS011;14201;43.188;24.160;2022-07-29T15:45:16;23.65;;;10.45;;
26530;SDS011;14201;43.188;24.160;2022-07-29T15:47:42;18.95;;;8.98;;
26530;SDS011;14201;43.188;24.160;2022-07-29T15:50:08;13.90;;;7.85;;
26530;SDS011;14201;43.188;24.160;2022-07-29T15:52:38;18.98;;;9.45;;
26530;SDS011;14201;43.188;24.160;2022-07-29T15:55:04;17.48;;;9.32;;
26530;SDS011;14201;43.188;24.160;2022-07-29T15:57:30;18.02;;;9.30;;
26530;SDS011;14201;43.188;24.160;2022-07-29T15:59:56;14.82;;;8.27;;
26530;SDS011;14201;43.188;24.160;2022-07-29T16:02:21;12.93;;;8.52;;
26530;SDS011;14201;43.188;24.160;2022-07-29T16:04:47;19.30;;;9.18;;
26530;SDS011;14201;43.188;24.160;2022-07-29T16:07:13;16.08;;;9.48;;
26530;SDS011;14201;43.188;24.160;2022-07-29T16:09:40;15.43;;;9.15;;
26530;SDS011;14201;43.188;24.160;2022-07-29T16:12:06;12.32;;;8.88;;
26530;SDS011;14201;43.188;24.160;2022-07-29T16:14:32;12.13;;;8.57;;
26530;SDS011;14201;43.188;24.160;2022-07-29T16:16:58;16.73;;;8.63;;
26530;SDS011;14201;43.188;24.160;2022-07-29T16:19:27;10.32;;;8.05;;
26530;SDS011;14201;43.188;24.160;2022-07-29T16:21:54;12.77;;;8.57;;
26530;SDS011;14201;43.188;24.160;2022-07-29T16:24:19;13.63;;;8.40;;
26530;SDS011;14201;43.188;24.160;2022-07-29T16:26:45;13.98;;;8.60;;
26530;SDS011;14201;43.188;24.160;2022-07-29T16:29:11;14.13;;;8.70;;
26530;SDS011;14201;43.188;24.160;2022-07-29T16:31:37;13.80;;;8.57;;
26530;SDS011;14201;43.188;24.160;2022-07-29T16:34:03;12.48;;;8.57;;
26530;SDS011;14201;43.188;24.160;2022-07-29T16:36:28;13.52;;;9.05;;
26530;SDS011;14201;43.188;24.160;2022-07-29T16:38:54;10.80;;;8.00;;
26530;SDS011;14201;43.188;24.160;2022-07-29T16:41:20;12.82;;;8.10;;
26530;SDS011;14201;43.188;24.160;2022-07-29T16:43:46;12.00;;;8.40;;
26530;SDS011;14201;43.188;24.160;2022-07-29T16:46:12;9.50;;;7.93;;
26530;SDS011;14201;43.188;24.160;2022-07-29T16:48:38;11.35;;;8.68;;
26530;SDS011;14201;43.188;24.160;2022-07-29T16:51:04;10.10;;;8.30;;
26530;SDS011;14201;43.188;24.160;2022-07-29T16:53:30;9.05;;;8.15;;
26530;SDS011;14201;43.188;24.160;2022-07-29T16:55:56;12.73;;;9.32;;
26530;SDS011;14201;43.188;24.160;2022-07-29T16:58:22;10.50;;;7.93;;
26530;SDS011;14201;43.188;24.160;2022-07-29T17:00:48;12.88;;;8.95;;
26530;SDS011;14201;43.188;24.160;2022-07-29T17:03:13;13.30;;;9.48;;
26530;SDS011;14201;43.188;24.160;2022-07-29T17:05:39;14.02;;;8.93;;
26530;SDS011;14201;43.188;24.160;2022-07-29T17:08:05;12.63;;;8.93;;
26530;SDS011;14201;43.188;24.160;2022-07-29T17:10:31;12.07;;;9.15;;
26530;SDS011;14201;43.188;24.160;2022-07-29T17:12:56;14.02;;;9.57;;
26530;SDS011;14201;43.188;24.160;2022-07-29T17:15:22;12.70;;;9.00;;
26530;SDS011;14201;43.188;24.160;2022-07-29T17:17:48;13.77;;;9.10;;
26530;SDS011;14201;43.188;24.160;2022-07-29T17:20:14;10.88;;;8.90;;